sensor_id;sensor_type;location;lat;lon;timestamp;temperature;humidity
15072;DHT22;7635;56.696;13.002;2023-04-01T00:00:56;1.40;99.90
15072;DHT22;7635;56.696;13.002;2023-04-01T00:03:25;1.40;99.90
15072;DHT22;7635;56.696;13.002;2023-04-01T00:05:53;1.40;99.90
15072;DHT22;7635;56.696;13.002;2023-04-01T00:08:19;1.30;99.90
15072;DHT22;7635;56.696;13.002;2023-04-01T00:10:47;1.30;99.90
15072;DHT22;7635;56.696;13.002;2023-04-01T00:13:14;1.30;99.90
15072;DHT22;7635;56.696;13.002;2023-04-01T00:15:41;1.30;99.90
15072;DHT22;7635;56.696;13.002;2023-04-01T00:18:08;1.30;99.90
15072;DHT22;7635;56.696;13.002;2023-04-01T00:20:37;1.30;99.90
15072;DHT22;7635;56.696;13.002;2023-04-01T00:23:04;1.30;99.90
15072;DHT22;7635;56.696;13.002;2023-04-01T00:25:31;1.30;99.90
15072;DHT22;7635;56.696;13.002;2023-04-01T00:27:58;1.30;99.90
15072;DHT22;7635;56.696;13.002;2023-04-01T00:30:24;1.30;99.90
15072;DHT22;7635;56.696;13.002;2023-04-01T00:32:51;1.30;99.90
15072;DHT22;7635;56.696;13.002;2023-04-01T00:35:18;1.30;99.90
15072;DHT22;7635;56.696;13.002;2023-04-01T00:37:46;1.20;99.90
15072;DHT22;7635;56.696;13.002;2023-04-01T00:40:24;1.20;99.90
15072;DHT22;7635;56.696;13.002;2023-04-01T00:42:51;1.30;99.90
15072;DHT22;7635;56.696;13.002;2023-04-01T00:45:36;1.20;99.90
15072;DHT22;7635;56.696;13.002;2023-04-01T00:48:07;1.20;99.90
15072;DHT22;7635;56.696;13.002;2023-04-01T00:50:34;1.20;99.90
15072;DHT22;7635;56.696;13.002;2023-04-01T00:53:03;1.20;99.90
15072;DHT22;7635;56.696;13.002;2023-04-01T00:55:34;1.20;99.90
15072;DHT22;7635;56.696;13.002;2023-04-01T00:58:03;1.20;99.90
15072;DHT22;7635;56.696;13.002;2023-04-01T01:00:31;1.20;99.90
15072;DHT22;7635;56.696;13.002;2023-04-01T01:02:58;1.20;99.90
15072;DHT22;7635;56.696;13.002;2023-04-01T01:05:35;1.20;99.90
15072;DHT22;7635;56.696;13.002;2023-04-01T01:08:10;1.20;99.90
15072;DHT22;7635;56.696;13.002;2023-04-01T01:10:43;1.20;99.90
15072;DHT22;7635;56.696;13.002;2023-04-01T01:13:17;1.20;99.90
15072;DHT22;7635;56.696;13.002;2023-04-01T01:15:47;1.10;99.90
15072;DHT22;7635;56.696;13.002;2023-04-01T01:18:19;1.10;99.90
15072;DHT22;7635;56.696;13.002;2023-04-01T01:21:15;1.10;99.90
15072;DHT22;7635;56.696;13.002;2023-04-01T01:24:08;1.10;99.90
15072;DHT22;7635;56.696;13.002;2023-04-01T01:26:50;1.10;99.90
15072;DHT22;7635;56.696;13.002;2023-04-01T01:29:51;1.10;99.90
15072;DHT22;7635;56.696;13.002;2023-04-01T01:32:35;1.10;99.90
15072;DHT22;7635;56.696;13.002;2023-04-01T01:35:22;1.10;99.90
15072;DHT22;7635;56.696;13.002;2023-04-01T01:37:53;1.10;99.90
15072;DHT22;7635;56.696;13.002;2023-04-01T01:40:22;1.10;99.90
15072;DHT22;7635;56.696;13.002;2023-04-01T01:42:53;1.10;99.90
15072;DHT22;7635;56.696;13.002;2023-04-01T01:45:23;1.10;99.90
15072;DHT22;7635;56.696;13.002;2023-04-01T01:47:51;1.10;99.90
15072;DHT22;7635;56.696;13.002;2023-04-01T01:50:19;1.10;99.90
15072;DHT22;7635;56.696;13.002;2023-04-01T01:52:47;1.00;99.90
15072;DHT22;7635;56.696;13.002;2023-04-01T01:55:26;1.00;99.90
15072;DHT22;7635;56.696;13.002;2023-04-01T01:57:55;1.00;99.90
15072;DHT22;7635;56.696;13.002;2023-04-01T02:00:22;1.00;99.90
15072;DHT22;7635;56.696;13.002;2023-04-01T02:02:49;0.90;99.90
15072;DHT22;7635;56.696;13.002;2023-04-01T02:05:19;0.90;99.90
15072;DHT22;7635;56.696;13.002;2023-04-01T02:07:52;0.90;99.90
15072;DHT22;7635;56.696;13.002;2023-04-01T02:10:25;0.90;99.90
15072;DHT22;7635;56.696;13.002;2023-04-01T02:12:53;0.80;99.90
15072;DHT22;7635;56.696;13.002;2023-04-01T02:15:25;0.80;99.90
15072;DHT22;7635;56.696;13.002;2023-04-01T02:17:56;0.80;99.90
15072;DHT22;7635;56.696;13.002;2023-04-01T02:20:23;0.80;99.90
15072;DHT22;7635;56.696;13.002;2023-04-01T02:22:54;0.80;99.90
15072;DHT22;7635;56.696;13.002;2023-04-01T02:25:24;0.70;99.90
15072;DHT22;7635;56.696;13.002;2023-04-01T02:27:51;0.70;99.90
15072;DHT22;7635;56.696;13.002;2023-04-01T02:30:20;0.70;99.90
15072;DHT22;7635;56.696;13.002;2023-04-01T02:32:48;0.70;99.90
15072;DHT22;7635;56.696;13.002;2023-04-01T02:35:16;0.70;99.90
15072;DHT22;7635;56.696;13.002;2023-04-01T02:37:45;0.70;99.90
15072;DHT22;7635;56.696;13.002;2023-04-01T02:40:15;0.60;99.90
15072;DHT22;7635;56.696;13.002;2023-04-01T02:42:42;0.60;99.90
15072;DHT22;7635;56.696;13.002;2023-04-01T02:45:10;0.60;99.90
15072;DHT22;7635;56.696;13.002;2023-04-01T02:47:37;0.60;99.90
15072;DHT22;7635;56.696;13.002;2023-04-01T02:50:05;0.50;99.90
15072;DHT22;7635;56.696;13.002;2023-04-01T02:52:32;0.50;99.90
15072;DHT22;7635;56.696;13.002;2023-04-01T02:54:59;0.50;99.90
15072;DHT22;7635;56.696;13.002;2023-04-01T02:57:27;0.50;99.90
15072;DHT22;7635;56.696;13.002;2023-04-01T02:59:54;0.50;99.90
15072;DHT22;7635;56.696;13.002;2023-04-01T03:02:21;0.40;99.90
15072;DHT22;7635;56.696;13.002;2023-04-01T03:04:48;0.40;99.90
15072;DHT22;7635;56.696;13.002;2023-04-01T03:07:14;0.40;99.90
15072;DHT22;7635;56.696;13.002;2023-04-01T03:09:41;0.40;99.90
15072;DHT22;7635;56.696;13.002;2023-04-01T03:12:08;0.30;99.90
15072;DHT22;7635;56.696;13.002;2023-04-01T03:14:36;0.30;99.90
15072;DHT22;7635;56.696;13.002;2023-04-01T03:17:03;0.30;99.90
15072;DHT22;7635;56.696;13.002;2023-04-01T03:19:30;0.30;99.90
15072;DHT22;7635;56.696;13.002;2023-04-01T03:21:57;0.30;99.90
15072;DHT22;7635;56.696;13.002;2023-04-01T03:24:24;0.30;99.90
15072;DHT22;7635;56.696;13.002;2023-04-01T03:26:50;0.20;99.90
15072;DHT22;7635;56.696;13.002;2023-04-01T03:29:17;0.20;99.90
15072;DHT22;7635;56.696;13.002;2023-04-01T03:31:45;0.20;99.90
15072;DHT22;7635;56.696;13.002;2023-04-01T03:34:12;0.10;99.90
15072;DHT22;7635;56.696;13.002;2023-04-01T03:36:38;0.10;99.90
15072;DHT22;7635;56.696;13.002;2023-04-01T03:39:05;0.10;99.90
15072;DHT22;7635;56.696;13.002;2023-04-01T03:41:32;0.10;99.90
15072;DHT22;7635;56.696;13.002;2023-04-01T03:43:59;0.00;99.90
15072;DHT22;7635;56.696;13.002;2023-04-01T03:46:26;0.00;99.90
15072;DHT22;7635;56.696;13.002;2023-04-01T03:48:54;0.00;99.90
15072;DHT22;7635;56.696;13.002;2023-04-01T03:51:20;0.00;99.90
15072;DHT22;7635;56.696;13.002;2023-04-01T03:53:48;0.00;99.90
15072;DHT22;7635;56.696;13.002;2023-04-01T03:56:15;-0.10;99.90
15072;DHT22;7635;56.696;13.002;2023-04-01T03:58:42;-0.10;99.90
15072;DHT22;7635;56.696;13.002;2023-04-01T04:01:16;-0.10;99.90
15072;DHT22;7635;56.696;13.002;2023-04-01T04:03:43;-0.10;99.90
15072;DHT22;7635;56.696;13.002;2023-04-01T04:06:13;-0.20;99.90
15072;DHT22;7635;56.696;13.002;2023-04-01T04:08:40;-0.10;99.90
15072;DHT22;7635;56.696;13.002;2023-04-01T04:11:07;-0.20;99.90
15072;DHT22;7635;56.696;13.002;2023-04-01T04:13:34;-0.20;99.90
15072;DHT22;7635;56.696;13.002;2023-04-01T04:16:01;-0.20;99.90
15072;DHT22;7635;56.696;13.002;2023-04-01T04:18:28;-0.20;99.90
15072;DHT22;7635;56.696;13.002;2023-04-01T04:20:54;-0.20;99.90
15072;DHT22;7635;56.696;13.002;2023-04-01T04:23:23;-0.30;99.90
15072;DHT22;7635;56.696;13.002;2023-04-01T04:25:54;-0.30;99.90
15072;DHT22;7635;56.696;13.002;2023-04-01T04:28:21;-0.30;99.90
15072;DHT22;7635;56.696;13.002;2023-04-01T04:30:48;-0.30;99.90
15072;DHT22;7635;56.696;13.002;2023-04-01T04:33:15;-0.30;99.90
15072;DHT22;7635;56.696;13.002;2023-04-01T04:35:41;-0.30;99.90
15072;DHT22;7635;56.696;13.002;2023-04-01T04:38:08;-0.40;99.90
15072;DHT22;7635;56.696;13.002;2023-04-01T04:40:37;-0.40;99.90
15072;DHT22;7635;56.696;13.002;2023-04-01T04:43:04;-0.40;99.90
15072;DHT22;7635;56.696;13.002;2023-04-01T04:45:31;-0.40;99.90
15072;DHT22;7635;56.696;13.002;2023-04-01T04:47:58;-0.50;99.90
15072;DHT22;7635;56.696;13.002;2023-04-01T04:50:25;-0.40;99.90
15072;DHT22;7635;56.696;13.002;2023-04-01T04:52:51;-0.50;99.90
15072;DHT22;7635;56.696;13.002;2023-04-01T04:55:18;-0.50;99.90
15072;DHT22;7635;56.696;13.002;2023-04-01T04:57:46;-0.60;99.90
15072;DHT22;7635;56.696;13.002;2023-04-01T05:00:14;-0.60;99.90
15072;DHT22;7635;56.696;13.002;2023-04-01T05:02:40;-0.60;99.90
15072;DHT22;7635;56.696;13.002;2023-04-01T05:05:07;-0.60;99.90
15072;DHT22;7635;56.696;13.002;2023-04-01T05:07:34;-0.60;99.90
15072;DHT22;7635;56.696;13.002;2023-04-01T05:10:01;-0.60;99.90
15072;DHT22;7635;56.696;13.002;2023-04-01T05:12:28;-0.60;99.90
15072;DHT22;7635;56.696;13.002;2023-04-01T05:14:56;-0.60;99.90
15072;DHT22;7635;56.696;13.002;2023-04-01T05:17:22;-0.60;99.90
15072;DHT22;7635;56.696;13.002;2023-04-01T05:19:49;-0.60;99.90
15072;DHT22;7635;56.696;13.002;2023-04-01T05:22:16;-0.70;99.90
15072;DHT22;7635;56.696;13.002;2023-04-01T05:24:42;-0.60;99.90
15072;DHT22;7635;56.696;13.002;2023-04-01T05:27:09;-0.60;99.90
15072;DHT22;7635;56.696;13.002;2023-04-01T05:29:36;-0.60;99.90
15072;DHT22;7635;56.696;13.002;2023-04-01T05:32:04;-0.60;99.90
15072;DHT22;7635;56.696;13.002;2023-04-01T05:34:30;-0.60;99.90
15072;DHT22;7635;56.696;13.002;2023-04-01T05:36:57;-0.60;99.90
15072;DHT22;7635;56.696;13.002;2023-04-01T05:39:24;-0.60;99.90
15072;DHT22;7635;56.696;13.002;2023-04-01T05:41:50;-0.60;99.90
15072;DHT22;7635;56.696;13.002;2023-04-01T05:44:17;-0.60;99.90
15072;DHT22;7635;56.696;13.002;2023-04-01T05:46:44;-0.60;99.90
15072;DHT22;7635;56.696;13.002;2023-04-01T05:49:12;-0.60;99.90
15072;DHT22;7635;56.696;13.002;2023-04-01T05:51:38;-0.60;99.90
15072;DHT22;7635;56.696;13.002;2023-04-01T05:54:05;-0.60;99.90
15072;DHT22;7635;56.696;13.002;2023-04-01T05:56:32;-0.60;99.90
15072;DHT22;7635;56.696;13.002;2023-04-01T05:58:59;-0.60;99.90
15072;DHT22;7635;56.696;13.002;2023-04-01T06:01:25;-0.60;99.90
15072;DHT22;7635;56.696;13.002;2023-04-01T06:03:52;-0.60;99.90
15072;DHT22;7635;56.696;13.002;2023-04-01T06:06:24;-0.50;99.90
15072;DHT22;7635;56.696;13.002;2023-04-01T06:08:52;-0.40;99.90
15072;DHT22;7635;56.696;13.002;2023-04-01T06:11:24;-0.30;99.90
15072;DHT22;7635;56.696;13.002;2023-04-01T06:14:03;-0.10;99.90
15072;DHT22;7635;56.696;13.002;2023-04-01T06:16:43;-0.10;99.90
15072;DHT22;7635;56.696;13.002;2023-04-01T06:19:21;0.00;99.90
15072;DHT22;7635;56.696;13.002;2023-04-01T06:22:13;0.10;99.90
15072;DHT22;7635;56.696;13.002;2023-04-01T06:24:58;0.10;99.90
15072;DHT22;7635;56.696;13.002;2023-04-01T06:27:43;0.10;99.90
15072;DHT22;7635;56.696;13.002;2023-04-01T06:30:29;0.10;99.90
15072;DHT22;7635;56.696;13.002;2023-04-01T06:33:27;0.20;99.90
15072;DHT22;7635;56.696;13.002;2023-04-01T06:36:25;0.20;99.90
15072;DHT22;7635;56.696;13.002;2023-04-01T06:39:13;0.40;99.90
15072;DHT22;7635;56.696;13.002;2023-04-01T06:41:55;0.50;99.90
15072;DHT22;7635;56.696;13.002;2023-04-01T06:44:33;0.70;99.90
15072;DHT22;7635;56.696;13.002;2023-04-01T06:47:12;1.00;99.90
15072;DHT22;7635;56.696;13.002;2023-04-01T06:49:49;1.20;99.90
15072;DHT22;7635;56.696;13.002;2023-04-01T06:52:23;1.50;99.90
15072;DHT22;7635;56.696;13.002;2023-04-01T06:54:57;1.70;99.90
15072;DHT22;7635;56.696;13.002;2023-04-01T06:57:31;2.00;99.90
15072;DHT22;7635;56.696;13.002;2023-04-01T07:00:00;2.20;99.90
15072;DHT22;7635;56.696;13.002;2023-04-01T07:02:36;2.40;99.90
15072;DHT22;7635;56.696;13.002;2023-04-01T07:05:06;2.70;99.90
15072;DHT22;7635;56.696;13.002;2023-04-01T07:07:36;3.10;99.90
15072;DHT22;7635;56.696;13.002;2023-04-01T07:10:13;3.40;99.90
15072;DHT22;7635;56.696;13.002;2023-04-01T07:12:46;3.70;99.90
15072;DHT22;7635;56.696;13.002;2023-04-01T07:15:19;3.80;99.90
15072;DHT22;7635;56.696;13.002;2023-04-01T07:17:50;3.90;99.90
15072;DHT22;7635;56.696;13.002;2023-04-01T07:20:22;4.10;99.90
15072;DHT22;7635;56.696;13.002;2023-04-01T07:22:53;4.30;99.90
15072;DHT22;7635;56.696;13.002;2023-04-01T07:25:25;4.50;99.90
15072;DHT22;7635;56.696;13.002;2023-04-01T07:27:53;4.50;99.90
15072;DHT22;7635;56.696;13.002;2023-04-01T07:30:23;4.70;99.90
15072;DHT22;7635;56.696;13.002;2023-04-01T07:32:52;4.90;99.90
15072;DHT22;7635;56.696;13.002;2023-04-01T07:35:26;4.90;99.90
15072;DHT22;7635;56.696;13.002;2023-04-01T07:38:08;5.20;99.90
15072;DHT22;7635;56.696;13.002;2023-04-01T07:40:42;5.50;99.90
15072;DHT22;7635;56.696;13.002;2023-04-01T07:46:09;5.70;99.90
15072;DHT22;7635;56.696;13.002;2023-04-01T07:48:45;5.80;99.90
15072;DHT22;7635;56.696;13.002;2023-04-01T07:51:18;5.90;99.90
15072;DHT22;7635;56.696;13.002;2023-04-01T07:53:49;6.10;99.90
15072;DHT22;7635;56.696;13.002;2023-04-01T07:56:24;6.30;99.90
15072;DHT22;7635;56.696;13.002;2023-04-01T07:58:59;6.30;99.90
15072;DHT22;7635;56.696;13.002;2023-04-01T08:01:32;6.30;99.90
15072;DHT22;7635;56.696;13.002;2023-04-01T08:04:19;6.40;99.90
15072;DHT22;7635;56.696;13.002;2023-04-01T08:06:54;6.50;99.90
15072;DHT22;7635;56.696;13.002;2023-04-01T08:09:29;6.60;99.90
15072;DHT22;7635;56.696;13.002;2023-04-01T08:12:09;6.60;99.90
15072;DHT22;7635;56.696;13.002;2023-04-01T08:14:48;6.70;99.90
15072;DHT22;7635;56.696;13.002;2023-04-01T08:17:24;6.70;99.90
15072;DHT22;7635;56.696;13.002;2023-04-01T08:20:04;6.70;99.90
15072;DHT22;7635;56.696;13.002;2023-04-01T08:22:38;6.70;99.90
15072;DHT22;7635;56.696;13.002;2023-04-01T08:25:12;6.80;99.90
15072;DHT22;7635;56.696;13.002;2023-04-01T08:27:45;7.10;99.90
15072;DHT22;7635;56.696;13.002;2023-04-01T08:30:18;7.30;99.90
15072;DHT22;7635;56.696;13.002;2023-04-01T08:32:48;7.40;99.90
15072;DHT22;7635;56.696;13.002;2023-04-01T08:35:24;7.80;99.90
15072;DHT22;7635;56.696;13.002;2023-04-01T08:37:51;8.00;99.90
15072;DHT22;7635;56.696;13.002;2023-04-01T08:43:36;8.40;99.90
15072;DHT22;7635;56.696;13.002;2023-04-01T08:46:32;8.80;99.90
15072;DHT22;7635;56.696;13.002;2023-04-01T08:49:16;8.80;99.90
15072;DHT22;7635;56.696;13.002;2023-04-01T08:55:14;8.90;99.90
15072;DHT22;7635;56.696;13.002;2023-04-01T08:57:56;9.10;99.90
15072;DHT22;7635;56.696;13.002;2023-04-01T09:00:30;9.30;99.90
15072;DHT22;7635;56.696;13.002;2023-04-01T09:03:35;9.30;99.90
15072;DHT22;7635;56.696;13.002;2023-04-01T09:09:07;9.70;99.90
15072;DHT22;7635;56.696;13.002;2023-04-01T09:11:44;10.00;99.90
15072;DHT22;7635;56.696;13.002;2023-04-01T09:14:41;10.20;99.90
15072;DHT22;7635;56.696;13.002;2023-04-01T09:17:33;10.30;99.90
15072;DHT22;7635;56.696;13.002;2023-04-01T09:20:19;10.20;99.90
15072;DHT22;7635;56.696;13.002;2023-04-01T09:23:17;9.90;99.90
15072;DHT22;7635;56.696;13.002;2023-04-01T09:25:56;9.90;99.90
15072;DHT22;7635;56.696;13.002;2023-04-01T09:28:28;9.70;99.90
15072;DHT22;7635;56.696;13.002;2023-04-01T09:31:20;9.50;99.90
15072;DHT22;7635;56.696;13.002;2023-04-01T09:34:23;9.40;99.90
15072;DHT22;7635;56.696;13.002;2023-04-01T09:36:58;9.80;99.90
15072;DHT22;7635;56.696;13.002;2023-04-01T09:39:35;10.10;99.90
15072;DHT22;7635;56.696;13.002;2023-04-01T09:42:29;10.20;99.90
15072;DHT22;7635;56.696;13.002;2023-04-01T09:44:59;10.50;99.90
15072;DHT22;7635;56.696;13.002;2023-04-01T09:47:39;10.60;99.90
15072;DHT22;7635;56.696;13.002;2023-04-01T09:50:32;10.80;99.90
15072;DHT22;7635;56.696;13.002;2023-04-01T09:53:14;10.80;99.90
15072;DHT22;7635;56.696;13.002;2023-04-01T09:59:31;10.90;99.90
15072;DHT22;7635;56.696;13.002;2023-04-01T10:02:34;10.80;99.90
15072;DHT22;7635;56.696;13.002;2023-04-01T10:05:35;10.90;99.90
15072;DHT22;7635;56.696;13.002;2023-04-01T10:08:34;11.20;99.90
15072;DHT22;7635;56.696;13.002;2023-04-01T10:11:22;11.10;99.90
15072;DHT22;7635;56.696;13.002;2023-04-01T10:14:26;10.90;99.90
15072;DHT22;7635;56.696;13.002;2023-04-01T10:17:25;11.20;99.90
15072;DHT22;7635;56.696;13.002;2023-04-01T10:29:34;11.70;99.90
15072;DHT22;7635;56.696;13.002;2023-04-01T10:32:39;11.70;99.90
15072;DHT22;7635;56.696;13.002;2023-04-01T10:35:23;11.70;99.90
15072;DHT22;7635;56.696;13.002;2023-04-01T10:41:33;11.60;99.90
15072;DHT22;7635;56.696;13.002;2023-04-01T10:44:35;11.70;99.90
15072;DHT22;7635;56.696;13.002;2023-04-01T10:53:34;11.40;99.90
15072;DHT22;7635;56.696;13.002;2023-04-01T11:02:38;12.10;99.90
15072;DHT22;7635;56.696;13.002;2023-04-01T11:08:59;12.10;99.90
15072;DHT22;7635;56.696;13.002;2023-04-01T11:15:02;12.30;98.80
15072;DHT22;7635;56.696;13.002;2023-04-01T11:17:55;12.10;99.10
15072;DHT22;7635;56.696;13.002;2023-04-01T11:21:02;11.80;99.90
15072;DHT22;7635;56.696;13.002;2023-04-01T11:23:50;11.60;98.90
15072;DHT22;7635;56.696;13.002;2023-04-01T11:26:29;11.50;98.90
15072;DHT22;7635;56.696;13.002;2023-04-01T11:29:19;11.40;98.60
15072;DHT22;7635;56.696;13.002;2023-04-01T11:31:58;11.30;99.90
15072;DHT22;7635;56.696;13.002;2023-04-01T11:34:42;11.30;99.90
15072;DHT22;7635;56.696;13.002;2023-04-01T11:37:23;11.30;99.90
15072;DHT22;7635;56.696;13.002;2023-04-01T11:40:01;11.60;99.90
15072;DHT22;7635;56.696;13.002;2023-04-01T11:42:37;11.50;99.90
15072;DHT22;7635;56.696;13.002;2023-04-01T11:45:16;11.30;99.50
15072;DHT22;7635;56.696;13.002;2023-04-01T11:48:08;11.30;99.10
15072;DHT22;7635;56.696;13.002;2023-04-01T11:50:50;11.30;99.90
15072;DHT22;7635;56.696;13.002;2023-04-01T11:53:31;11.30;99.90
15072;DHT22;7635;56.696;13.002;2023-04-01T11:56:13;11.40;99.90
15072;DHT22;7635;56.696;13.002;2023-04-01T11:58:54;11.40;98.40
15072;DHT22;7635;56.696;13.002;2023-04-01T12:01:49;11.30;98.50
15072;DHT22;7635;56.696;13.002;2023-04-01T12:04:51;11.00;97.50
15072;DHT22;7635;56.696;13.002;2023-04-01T12:07:34;10.80;99.70
15072;DHT22;7635;56.696;13.002;2023-04-01T12:10:12;10.80;98.50
15072;DHT22;7635;56.696;13.002;2023-04-01T12:12:48;10.60;98.30
15072;DHT22;7635;56.696;13.002;2023-04-01T12:15:26;10.70;99.90
15072;DHT22;7635;56.696;13.002;2023-04-01T12:18:00;10.90;99.90
15072;DHT22;7635;56.696;13.002;2023-04-01T12:20:38;10.70;98.40
15072;DHT22;7635;56.696;13.002;2023-04-01T12:23:17;10.60;99.70
15072;DHT22;7635;56.696;13.002;2023-04-01T12:26:04;10.50;99.90
15072;DHT22;7635;56.696;13.002;2023-04-01T12:28:44;10.60;99.90
15072;DHT22;7635;56.696;13.002;2023-04-01T12:31:23;10.50;99.50
15072;DHT22;7635;56.696;13.002;2023-04-01T12:36:51;10.50;99.90
15072;DHT22;7635;56.696;13.002;2023-04-01T12:39:33;10.40;99.90
15072;DHT22;7635;56.696;13.002;2023-04-01T12:42:11;10.20;99.80
15072;DHT22;7635;56.696;13.002;2023-04-01T12:44:56;10.00;99.90
15072;DHT22;7635;56.696;13.002;2023-04-01T12:47:51;10.10;99.90
15072;DHT22;7635;56.696;13.002;2023-04-01T12:50:30;10.10;99.90
15072;DHT22;7635;56.696;13.002;2023-04-01T12:53:17;10.00;99.90
15072;DHT22;7635;56.696;13.002;2023-04-01T12:55:48;10.00;99.90
15072;DHT22;7635;56.696;13.002;2023-04-01T12:58:41;9.80;99.90
15072;DHT22;7635;56.696;13.002;2023-04-01T13:01:28;9.70;99.90
15072;DHT22;7635;56.696;13.002;2023-04-01T13:07:28;9.50;99.90
15072;DHT22;7635;56.696;13.002;2023-04-01T13:10:04;9.30;99.90
15072;DHT22;7635;56.696;13.002;2023-04-01T13:13:05;9.30;99.90
15072;DHT22;7635;56.696;13.002;2023-04-01T13:15:41;9.20;99.90
15072;DHT22;7635;56.696;13.002;2023-04-01T13:18:20;9.20;99.90
15072;DHT22;7635;56.696;13.002;2023-04-01T13:20:54;9.20;99.90
15072;DHT22;7635;56.696;13.002;2023-04-01T13:23:33;9.30;99.90
15072;DHT22;7635;56.696;13.002;2023-04-01T13:26:09;9.20;99.90
15072;DHT22;7635;56.696;13.002;2023-04-01T13:28:40;9.00;99.90
15072;DHT22;7635;56.696;13.002;2023-04-01T13:31:15;9.00;99.90
15072;DHT22;7635;56.696;13.002;2023-04-01T13:33:53;8.90;99.90
15072;DHT22;7635;56.696;13.002;2023-04-01T13:36:32;8.90;99.90
15072;DHT22;7635;56.696;13.002;2023-04-01T13:39:15;8.90;99.90
15072;DHT22;7635;56.696;13.002;2023-04-01T13:42:00;8.80;99.90
15072;DHT22;7635;56.696;13.002;2023-04-01T13:44:33;8.90;99.90
15072;DHT22;7635;56.696;13.002;2023-04-01T13:47:17;8.80;99.90
15072;DHT22;7635;56.696;13.002;2023-04-01T13:50:01;8.70;99.90
15072;DHT22;7635;56.696;13.002;2023-04-01T13:53:04;8.60;99.90
15072;DHT22;7635;56.696;13.002;2023-04-01T13:55:52;8.50;99.90
15072;DHT22;7635;56.696;13.002;2023-04-01T13:58:35;8.40;99.90
15072;DHT22;7635;56.696;13.002;2023-04-01T14:01:08;8.40;99.90
15072;DHT22;7635;56.696;13.002;2023-04-01T14:06:54;8.30;99.90
15072;DHT22;7635;56.696;13.002;2023-04-01T14:09:38;8.30;99.90
15072;DHT22;7635;56.696;13.002;2023-04-01T14:12:13;8.30;99.90
15072;DHT22;7635;56.696;13.002;2023-04-01T14:14:55;8.20;99.90
15072;DHT22;7635;56.696;13.002;2023-04-01T14:17:44;8.10;99.90
15072;DHT22;7635;56.696;13.002;2023-04-01T14:20:27;8.00;99.90
15072;DHT22;7635;56.696;13.002;2023-04-01T14:23:11;7.90;99.90
15072;DHT22;7635;56.696;13.002;2023-04-01T14:25:50;7.90;99.90
15072;DHT22;7635;56.696;13.002;2023-04-01T14:28:26;7.90;99.90
15072;DHT22;7635;56.696;13.002;2023-04-01T14:31:23;7.80;99.90
15072;DHT22;7635;56.696;13.002;2023-04-01T14:34:00;7.90;99.90
15072;DHT22;7635;56.696;13.002;2023-04-01T14:36:44;7.90;99.90
15072;DHT22;7635;56.696;13.002;2023-04-01T14:39:29;7.80;99.90
15072;DHT22;7635;56.696;13.002;2023-04-01T14:42:14;7.80;99.90
15072;DHT22;7635;56.696;13.002;2023-04-01T14:45:12;7.80;99.90
15072;DHT22;7635;56.696;13.002;2023-04-01T14:47:51;7.70;99.90
15072;DHT22;7635;56.696;13.002;2023-04-01T14:50:22;7.70;99.90
15072;DHT22;7635;56.696;13.002;2023-04-01T14:52:57;7.60;99.90
15072;DHT22;7635;56.696;13.002;2023-04-01T14:55:31;7.60;99.90
15072;DHT22;7635;56.696;13.002;2023-04-01T14:58:00;7.60;99.90
15072;DHT22;7635;56.696;13.002;2023-04-01T15:00:41;7.50;99.90
15072;DHT22;7635;56.696;13.002;2023-04-01T15:03:18;7.50;99.90
15072;DHT22;7635;56.696;13.002;2023-04-01T15:05:49;7.50;99.90
15072;DHT22;7635;56.696;13.002;2023-04-01T15:08:21;7.50;99.90
15072;DHT22;7635;56.696;13.002;2023-04-01T15:11:13;7.40;99.90
15072;DHT22;7635;56.696;13.002;2023-04-01T15:14:12;7.40;99.90
15072;DHT22;7635;56.696;13.002;2023-04-01T15:16:52;7.40;99.90
15072;DHT22;7635;56.696;13.002;2023-04-01T15:19:29;7.30;99.90
15072;DHT22;7635;56.696;13.002;2023-04-01T15:22:19;7.30;99.90
15072;DHT22;7635;56.696;13.002;2023-04-01T15:25:03;7.20;99.90
15072;DHT22;7635;56.696;13.002;2023-04-01T15:27:37;7.20;99.90
15072;DHT22;7635;56.696;13.002;2023-04-01T15:30:27;7.20;99.90
15072;DHT22;7635;56.696;13.002;2023-04-01T15:36:05;7.10;99.90
15072;DHT22;7635;56.696;13.002;2023-04-01T15:38:39;7.10;99.90
15072;DHT22;7635;56.696;13.002;2023-04-01T15:41:15;7.10;99.90
15072;DHT22;7635;56.696;13.002;2023-04-01T15:43:44;7.00;99.90
15072;DHT22;7635;56.696;13.002;2023-04-01T15:46:21;7.00;99.90
15072;DHT22;7635;56.696;13.002;2023-04-01T15:49:01;6.90;99.90
15072;DHT22;7635;56.696;13.002;2023-04-01T15:54:37;6.80;99.90
15072;DHT22;7635;56.696;13.002;2023-04-01T15:57:20;6.80;99.90
15072;DHT22;7635;56.696;13.002;2023-04-01T16:00:18;6.70;99.90
15072;DHT22;7635;56.696;13.002;2023-04-01T16:02:48;6.70;99.90
15072;DHT22;7635;56.696;13.002;2023-04-01T16:05:37;6.70;99.90
15072;DHT22;7635;56.696;13.002;2023-04-01T16:08:21;6.70;99.90
15072;DHT22;7635;56.696;13.002;2023-04-01T16:11:14;6.60;99.90
15072;DHT22;7635;56.696;13.002;2023-04-01T16:13:52;6.60;99.90
15072;DHT22;7635;56.696;13.002;2023-04-01T16:16:31;6.60;99.90
15072;DHT22;7635;56.696;13.002;2023-04-01T16:22:13;6.50;99.90
15072;DHT22;7635;56.696;13.002;2023-04-01T16:24:46;6.50;99.90
15072;DHT22;7635;56.696;13.002;2023-04-01T16:27:18;6.50;99.90
15072;DHT22;7635;56.696;13.002;2023-04-01T16:29:53;6.40;99.90
15072;DHT22;7635;56.696;13.002;2023-04-01T16:32:31;6.30;99.90
15072;DHT22;7635;56.696;13.002;2023-04-01T16:35:16;6.30;99.90
15072;DHT22;7635;56.696;13.002;2023-04-01T16:37:50;6.30;99.90
15072;DHT22;7635;56.696;13.002;2023-04-01T16:40:25;6.30;99.90
15072;DHT22;7635;56.696;13.002;2023-04-01T16:43:11;6.20;99.90
15072;DHT22;7635;56.696;13.002;2023-04-01T16:45:43;6.20;99.90
15072;DHT22;7635;56.696;13.002;2023-04-01T16:48:14;6.10;99.90
15072;DHT22;7635;56.696;13.002;2023-04-01T16:50:53;6.10;99.90
15072;DHT22;7635;56.696;13.002;2023-04-01T16:53:30;6.00;99.90
15072;DHT22;7635;56.696;13.002;2023-04-01T16:56:07;6.00;99.90
15072;DHT22;7635;56.696;13.002;2023-04-01T16:58:36;5.90;99.90
15072;DHT22;7635;56.696;13.002;2023-04-01T17:01:06;5.90;99.90
15072;DHT22;7635;56.696;13.002;2023-04-01T17:03:39;5.80;99.90
15072;DHT22;7635;56.696;13.002;2023-04-01T17:06:16;5.80;99.90
15072;DHT22;7635;56.696;13.002;2023-04-01T17:09:01;5.70;99.90
15072;DHT22;7635;56.696;13.002;2023-04-01T17:11:35;5.70;99.90
15072;DHT22;7635;56.696;13.002;2023-04-01T17:14:13;5.60;99.90
15072;DHT22;7635;56.696;13.002;2023-04-01T17:19:54;5.50;99.90
15072;DHT22;7635;56.696;13.002;2023-04-01T17:22:32;5.50;99.90
15072;DHT22;7635;56.696;13.002;2023-04-01T17:25:14;5.40;99.90
15072;DHT22;7635;56.696;13.002;2023-04-01T17:27:50;5.30;99.90
15072;DHT22;7635;56.696;13.002;2023-04-01T17:30:30;5.30;99.90
15072;DHT22;7635;56.696;13.002;2023-04-01T17:33:15;5.20;99.90
15072;DHT22;7635;56.696;13.002;2023-04-01T17:35:52;5.20;99.90
15072;DHT22;7635;56.696;13.002;2023-04-01T17:38:27;5.10;99.90
15072;DHT22;7635;56.696;13.002;2023-04-01T17:41:03;5.00;99.90
15072;DHT22;7635;56.696;13.002;2023-04-01T17:43:40;4.90;99.90
15072;DHT22;7635;56.696;13.002;2023-04-01T17:46:23;4.90;99.90
15072;DHT22;7635;56.696;13.002;2023-04-01T17:48:57;4.80;99.90